Tecumseh — WTW9257 — position and weather

sailwx.info

Track history (hours):
 
Tides and Currents Weather Stations Pressure Air Temp Water Temp Dewpoint Dewpoint Depression Visibility Wind Speed Wind Dir Waves Ship Positions

Tecumseh

Owner: Sause Bros. Inc., COOS BAY, OR. More information available from US FCC via Universal Licensing System and Coast Guard Vessel Documentation Center.

Last reported at 2016-Jun-26 23:30 UTC. Time now 2016-Jun-27 00:34 UTC.
Position N 35°34' W 121°18'.

Length 90 m; draft 4.8 m.

Type: Towing. MMSI: 367133160.

Date/timePositionNaut miles runAvg speedWind from/ knotsBaromVisibWave heightAir tempDewpointWater temp
2016-Jun-26 23:30N 35°34' W 121°18'4 4.5
2016-Jun-26 22:33N 35°30' W 121°15'5 4.9
2016-Jun-26 21:33N 35°27' W 121°11'5 4.9
2016-Jun-26 20:28N 35°22' W 121°07'4 4.8
2016-Jun-26 19:33N 35°19' W 121°03'5 5.3
2016-Jun-26 18:33N 35°15' W 120°60'5 5.5
2016-Jun-26 17:34N 35°10' W 120°56'5 5.2
2016-Jun-26 16:34N 35°06' W 120°53'5 5.1
2016-Jun-26 15:33N 35°01' W 120°51'5 5.4
2016-Jun-26 14:33N 34°55' W 120°49'6 5.9
2016-Jun-26 13:33N 34°50' W 120°49'6 6.0
2016-Jun-26 12:33N 34°44' W 120°49'6 5.9
2016-Jun-26 11:30N 34°37' W 120°49'5 5.6
2016-Jun-26 10:33N 34°33' W 120°45'6 5.8
2016-Jun-26 09:33N 34°30' W 120°39'6 5.8
2016-Jun-26 08:33N 34°26' W 120°34'27 6.7
2016-Jun-26 04:32N 34°16' W 120°04'24 7.3
2016-Jun-26 01:18N 34°09' W 119°36'7 8.4
2016-Jun-26 00:29N 34°07' W 119°28'24 8.0
2016-Jun-25 21:26N 33°58' W 119°01'7 7.9
2016-Jun-25 20:33N 33°54' W 118°54'8 8.0
2016-Jun-25 19:32N 33°50' W 118°45'9 8.0
2016-Jun-25 18:23N 33°45' W 118°36'7 8.1
2016-Jun-25 17:33N 33°42' W 118°29'8 7.6
2016-Jun-25 16:33N 33°38' W 118°21'7 7.4
2016-Jun-25 15:32N 33°40' W 118°12'5 5.0
2016-Jun-25 14:33N 33°44' W 118°09'2 2.2
2016-Jun-25 13:33N 33°44' W 118°12'2 2.4
2016-Jun-25 12:33N 33°46' W 118°13'0 0.0
2016-Jun-25 11:33N 33°46' W 118°13'0 0.0
2016-Jun-25 10:33N 33°46' W 118°13'0 0.0
2016-Jun-25 09:33N 33°46' W 118°13'0 0.0
2016-Jun-25 08:33N 33°46' W 118°13'0 0.0
2016-Jun-25 07:33N 33°46' W 118°13'0 0.0
2016-Jun-25 06:33N 33°46' W 118°13'0 0.0
2016-Jun-25 05:33N 33°46' W 118°13'0 0.0
2016-Jun-25 04:33N 33°46' W 118°13'0 0.0
2016-Jun-25 03:33N 33°46' W 118°13'0 0.0
2016-Jun-25 02:33N 33°46' W 118°13'0 0.0
2016-Jun-25 01:33N 33°46' W 118°13'0 0.0
2016-Jun-25 00:33N 33°46' W 118°13'0 0.0
2016-Jun-24 23:33N 33°46' W 118°13'0 0.0
2016-Jun-24 22:33N 33°46' W 118°13'0 0.0
2016-Jun-24 21:33N 33°46' W 118°13'0 0.0
2016-Jun-24 20:33N 33°46' W 118°13'0 0.0
2016-Jun-24 19:33N 33°46' W 118°13'0 0.0
2016-Jun-24 18:33N 33°46' W 118°13'0 0.0
2016-Jun-24 17:33N 33°46' W 118°13'2 1.5
2016-Jun-24 16:33N 33°45' W 118°13'1 0.5
2016-Jun-24 15:33N 33°44' W 118°13'4 4.3
2016-Jun-24 14:33N 33°40' W 118°12'6 5.8
2016-Jun-24 13:33N 33°36' W 118°17'5 4.5
2016-Jun-24 12:32N 33°37' W 118°23'5 5.4
2016-Jun-24 11:33N 33°40' W 118°28'5 5.2
2016-Jun-24 10:33N 33°43' W 118°34'6 5.6
2016-Jun-24 09:33N 33°45' W 118°40'6 5.6
2016-Jun-24 08:33N 33°48' W 118°45'5 5.5
2016-Jun-24 07:33N 33°51' W 118°51'16 5.2
2016-Jun-24 04:33N 33°58' W 119°08'5 5.2
2016-Jun-24 03:32N 34°01' W 119°13'5 5.0
2016-Jun-24 02:31N 34°03' W 119°19'6 5.4
2016-Jun-24 01:24N 34°05' W 119°26'5 5.9
2016-Jun-24 00:33N 34°06' W 119°32'7 6.3
2016-Jun-23 23:30N 34°08' W 119°39'19 6.2
2016-Jun-23 20:26N 34°13' W 120°01'8 5.8
2016-Jun-23 19:05N 34°15' W 120°11'9 5.5
2016-Jun-23 17:28N 34°18' W 120°21'30 4.9
2016-Jun-23 11:16N 34°31' W 120°54'4 5.1
2016-Jun-23 10:33N 34°35' W 120°55'5 4.9
2016-Jun-23 09:33N 34°39' W 120°57'5 5.1
2016-Jun-23 08:33N 34°44' W 120°58'5 5.0
2016-Jun-23 07:33N 34°49' W 120°59'16 5.1
2016-Jun-23 04:28N 35°05' W 121°03'6 4.9
2016-Jun-23 03:11N 35°11' W 121°05'3 4.8
2016-Jun-23 02:33N 35°13' W 121°07'5 4.9
2016-Jun-23 01:33N 35°18' W 121°09'5 5.2
2016-Jun-23 00:33N 35°23' W 121°12'6 5.5
2016-Jun-22 23:33N 35°27' W 121°17'6 5.9
2016-Jun-22 22:33N 35°31' W 121°21'6 5.6
2016-Jun-22 21:32N 35°36' W 121°25'5 5.3
2016-Jun-22 20:32N 35°40' W 121°30'5 5.2
2016-Jun-22 19:33N 35°43' W 121°34'5 5.2
2016-Jun-22 18:33N 35°47' W 121°38'5 5.1
2016-Jun-22 17:33N 35°51' W 121°43'5 5.1
2016-Jun-22 16:33N 35°55' W 121°47'6 5.6
2016-Jun-22 15:33N 35°59' W 121°52'6 5.8
2016-Jun-22 14:33N 36°03' W 121°57'6 5.8
2016-Jun-22 13:33N 36°07' W 122°01'6 5.6
2016-Jun-22 12:33N 36°11' W 122°06'5 5.4
2016-Jun-22 11:33N 36°15' W 122°10'5 5.3
2016-Jun-22 10:33N 36°20' W 122°14'6 5.7
2016-Jun-22 09:33N 36°24' W 122°18'6 5.6
2016-Jun-22 08:33N 36°29' W 122°22'5 5.3
2016-Jun-22 07:33N 36°34' W 122°23'5 5.1
2016-Jun-22 06:33N 36°39' W 122°26'5 5.1
2016-Jun-22 05:33N 36°43' W 122°30'5 5.2
2016-Jun-22 04:33N 36°47' W 122°34'5 5.3
2016-Jun-22 03:31N 36°51' W 122°38'5 5.1
2016-Jun-22 02:33N 36°55' W 122°42'5 5.1
2016-Jun-22 01:33N 36°59' W 122°46'5 5.1
2016-Jun-22 00:33N 37°03' W 122°49'5 5.2
2016-Jun-21 23:33N 37°08' W 122°53'5 5.5
2016-Jun-21 22:33N 37°12' W 122°57'5 5.5
2016-Jun-21 21:33N 37°16' W 123°01'5 5.3
2016-Jun-21 20:33N 37°21' W 123°06'5 5.0
2016-Jun-21 19:33N 37°25' W 123°09'5 5.3
2016-Jun-21 18:33N 37°29' W 123°12'6 5.7
2016-Jun-21 17:33N 37°34' W 123°16'6 5.7
2016-Jun-21 16:33N 37°39' W 123°20'5 5.4
2016-Jun-21 15:33N 37°44' W 123°23'5 5.4
2016-Jun-21 14:32N 37°49' W 123°26'6 5.7
2016-Jun-21 13:33N 37°54' W 123°29'6 5.8
2016-Jun-21 12:33N 37°59' W 123°31'6 5.8
2016-Jun-21 11:33N 38°05' W 123°33'6 6.1
2016-Jun-21 10:33N 38°11' W 123°35'7 7.0
2016-Jun-21 09:33N 38°18' W 123°37'6 6.4
2016-Jun-21 08:33N 38°24' W 123°38'6 6.1
2016-Jun-21 07:33N 38°30' W 123°40'6 5.8
2016-Jun-21 06:33N 38°35' W 123°42'13 5.9
2016-Jun-21 04:20N 38°48' W 123°47'  
2016-Jun-18 10:31N 44°53' W 124°14'12 6.3
2016-Jun-18 08:33N 45°06' W 124°13'6 6.2
2016-Jun-18 07:32N 45°12' W 124°13'6 6.2
2016-Jun-18 06:33N 45°18' W 124°13'6 6.1
2016-Jun-18 05:33N 45°24' W 124°12'6 6.1
2016-Jun-18 04:33N 45°30' W 124°12'6 6.0
2016-Jun-18 03:33N 45°36' W 124°12'6 5.9
2016-Jun-18 02:33N 45°42' W 124°12'6 6.1
2016-Jun-18 01:33N 45°48' W 124°12'6 6.0
2016-Jun-18 00:33N 45°54' W 124°12'6 5.7
2016-Jun-17 23:33N 45°60' W 124°12'6 5.7
2016-Jun-17 22:33N 46°06' W 124°11'6 6.2
2016-Jun-17 21:33N 46°12' W 124°10'6 5.8
2016-Jun-17 20:33N 46°16' W 124°03'6 5.8
2016-Jun-17 19:33N 46°12' W 123°56'5 4.7
2016-Jun-17 18:33N 46°12' W 123°50'2 1.8
2016-Jun-17 17:33N 46°12' W 123°47'6 6.1
2016-Jun-17 16:33N 46°15' W 123°40'8 8.5
2016-Jun-17 15:33N 46°16' W 123°27'9 8.7
2016-Jun-17 14:33N 46°09' W 123°20'10 9.5
2016-Jun-17 13:33N 46°11' W 123°07'8 8.0
2016-Jun-17 12:33N 46°06' W 122°57'0 0.2
2016-Jun-17 11:33N 46°06' W 122°57'0 0.0
2016-Jun-17 10:33N 46°06' W 122°57'0 0.0
2016-Jun-17 09:33N 46°06' W 122°57'0 0.0
2016-Jun-17 08:33N 46°06' W 122°57'0 0.0
2016-Jun-17 07:33N 46°06' W 122°57'0 0.0
2016-Jun-17 06:33N 46°06' W 122°57'0 0.0
2016-Jun-17 05:33N 46°06' W 122°57'0 0.0
2016-Jun-17 04:33N 46°06' W 122°57'0 0.0
2016-Jun-17 03:33N 46°06' W 122°57'1010.4
2016-Jun-17 02:33N 45°57' W 122°49'1312.9
2016-Jun-17 01:33N 45°45' W 122°46'1010.3
2016-Jun-17 00:34N 45°35' W 122°45'1 0.8
2016-Jun-16 23:34N 45°34' W 122°44'  
Track history (hours):
 
Tides and Currents Weather Stations Pressure Air Temp Water Temp Dewpoint Dewpoint Depression Visibility Wind Speed Wind Dir Waves Ship Positions

Tecumseh

Owner: Sause Bros. Inc., COOS BAY, OR. More information available from US FCC via Universal Licensing System and Coast Guard Vessel Documentation Center.

Last reported at 2016-Jun-26 23:30 UTC. Time now 2016-Jun-27 00:34 UTC.
Position N 35°34' W 121°18'.

Length 90 m; draft 4.8 m.

Type: Towing. MMSI: 367133160.

Date/timePositionNaut miles runAvg speedWind from/ knotsBaromVisibWave heightAir tempDewpointWater temp
2016-Jun-26 23:30N 35°34' W 121°18'4 4.5
2016-Jun-26 22:33N 35°30' W 121°15'5 4.9
2016-Jun-26 21:33N 35°27' W 121°11'5 4.9
2016-Jun-26 20:28N 35°22' W 121°07'4 4.8
2016-Jun-26 19:33N 35°19' W 121°03'5 5.3
2016-Jun-26 18:33N 35°15' W 120°60'5 5.5
2016-Jun-26 17:34N 35°10' W 120°56'5 5.2
2016-Jun-26 16:34N 35°06' W 120°53'5 5.1
2016-Jun-26 15:33N 35°01' W 120°51'5 5.4
2016-Jun-26 14:33N 34°55' W 120°49'6 5.9
2016-Jun-26 13:33N 34°50' W 120°49'6 6.0
2016-Jun-26 12:33N 34°44' W 120°49'6 5.9
2016-Jun-26 11:30N 34°37' W 120°49'5 5.6
2016-Jun-26 10:33N 34°33' W 120°45'6 5.8
2016-Jun-26 09:33N 34°30' W 120°39'6 5.8
2016-Jun-26 08:33N 34°26' W 120°34'27 6.7
2016-Jun-26 04:32N 34°16' W 120°04'24 7.3
2016-Jun-26 01:18N 34°09' W 119°36'7 8.4
2016-Jun-26 00:29N 34°07' W 119°28'24 8.0
2016-Jun-25 21:26N 33°58' W 119°01'7 7.9
2016-Jun-25 20:33N 33°54' W 118°54'8 8.0
2016-Jun-25 19:32N 33°50' W 118°45'9 8.0
2016-Jun-25 18:23N 33°45' W 118°36'7 8.1
2016-Jun-25 17:33N 33°42' W 118°29'8 7.6
2016-Jun-25 16:33N 33°38' W 118°21'7 7.4
2016-Jun-25 15:32N 33°40' W 118°12'5 5.0
2016-Jun-25 14:33N 33°44' W 118°09'2 2.2
2016-Jun-25 13:33N 33°44' W 118°12'2 2.4
2016-Jun-25 12:33N 33°46' W 118°13'0 0.0
2016-Jun-25 11:33N 33°46' W 118°13'0 0.0
2016-Jun-25 10:33N 33°46' W 118°13'0 0.0
2016-Jun-25 09:33N 33°46' W 118°13'0 0.0
2016-Jun-25 08:33N 33°46' W 118°13'0 0.0
2016-Jun-25 07:33N 33°46' W 118°13'0 0.0
2016-Jun-25 06:33N 33°46' W 118°13'0 0.0
2016-Jun-25 05:33N 33°46' W 118°13'0 0.0
2016-Jun-25 04:33N 33°46' W 118°13'0 0.0
2016-Jun-25 03:33N 33°46' W 118°13'0 0.0
2016-Jun-25 02:33N 33°46' W 118°13'0 0.0
2016-Jun-25 01:33N 33°46' W 118°13'0 0.0
2016-Jun-25 00:33N 33°46' W 118°13'0 0.0
2016-Jun-24 23:33N 33°46' W 118°13'0 0.0
2016-Jun-24 22:33N 33°46' W 118°13'0 0.0
2016-Jun-24 21:33N 33°46' W 118°13'0 0.0
2016-Jun-24 20:33N 33°46' W 118°13'0 0.0
2016-Jun-24 19:33N 33°46' W 118°13'0 0.0
2016-Jun-24 18:33N 33°46' W 118°13'0 0.0
2016-Jun-24 17:33N 33°46' W 118°13'2 1.5
2016-Jun-24 16:33N 33°45' W 118°13'1 0.5
2016-Jun-24 15:33N 33°44' W 118°13'4 4.3
2016-Jun-24 14:33N 33°40' W 118°12'6 5.8
2016-Jun-24 13:33N 33°36' W 118°17'5 4.5
2016-Jun-24 12:32N 33°37' W 118°23'5 5.4
2016-Jun-24 11:33N 33°40' W 118°28'5 5.2
2016-Jun-24 10:33N 33°43' W 118°34'6 5.6
2016-Jun-24 09:33N 33°45' W 118°40'6 5.6
2016-Jun-24 08:33N 33°48' W 118°45'5 5.5
2016-Jun-24 07:33N 33°51' W 118°51'16 5.2
2016-Jun-24 04:33N 33°58' W 119°08'5 5.2
2016-Jun-24 03:32N 34°01' W 119°13'5 5.0
2016-Jun-24 02:31N 34°03' W 119°19'6 5.4
2016-Jun-24 01:24N 34°05' W 119°26'5 5.9
2016-Jun-24 00:33N 34°06' W 119°32'7 6.3
2016-Jun-23 23:30N 34°08' W 119°39'19 6.2
2016-Jun-23 20:26N 34°13' W 120°01'8 5.8
2016-Jun-23 19:05N 34°15' W 120°11'9 5.5
2016-Jun-23 17:28N 34°18' W 120°21'30 4.9
2016-Jun-23 11:16N 34°31' W 120°54'4 5.1
2016-Jun-23 10:33N 34°35' W 120°55'5 4.9
2016-Jun-23 09:33N 34°39' W 120°57'5 5.1
2016-Jun-23 08:33N 34°44' W 120°58'5 5.0
2016-Jun-23 07:33N 34°49' W 120°59'16 5.1
2016-Jun-23 04:28N 35°05' W 121°03'6 4.9
2016-Jun-23 03:11N 35°11' W 121°05'3 4.8
2016-Jun-23 02:33N 35°13' W 121°07'5 4.9
2016-Jun-23 01:33N 35°18' W 121°09'5 5.2
2016-Jun-23 00:33N 35°23' W 121°12'6 5.5
2016-Jun-22 23:33N 35°27' W 121°17'6 5.9
2016-Jun-22 22:33N 35°31' W 121°21'6 5.6
2016-Jun-22 21:32N 35°36' W 121°25'5 5.3
2016-Jun-22 20:32N 35°40' W 121°30'5 5.2
2016-Jun-22 19:33N 35°43' W 121°34'5 5.2
2016-Jun-22 18:33N 35°47' W 121°38'5 5.1
2016-Jun-22 17:33N 35°51' W 121°43'5 5.1
2016-Jun-22 16:33N 35°55' W 121°47'6 5.6
2016-Jun-22 15:33N 35°59' W 121°52'6 5.8
2016-Jun-22 14:33N 36°03' W 121°57'6 5.8
2016-Jun-22 13:33N 36°07' W 122°01'6 5.6
2016-Jun-22 12:33N 36°11' W 122°06'5 5.4
2016-Jun-22 11:33N 36°15' W 122°10'5 5.3
2016-Jun-22 10:33N 36°20' W 122°14'6 5.7
2016-Jun-22 09:33N 36°24' W 122°18'6 5.6
2016-Jun-22 08:33N 36°29' W 122°22'5 5.3
2016-Jun-22 07:33N 36°34' W 122°23'5 5.1
2016-Jun-22 06:33N 36°39' W 122°26'5 5.1
2016-Jun-22 05:33N 36°43' W 122°30'5 5.2
2016-Jun-22 04:33N 36°47' W 122°34'5 5.3
2016-Jun-22 03:31N 36°51' W 122°38'5 5.1
2016-Jun-22 02:33N 36°55' W 122°42'5 5.1
2016-Jun-22 01:33N 36°59' W 122°46'5 5.1
2016-Jun-22 00:33N 37°03' W 122°49'5 5.2
2016-Jun-21 23:33N 37°08' W 122°53'5 5.5
2016-Jun-21 22:33N 37°12' W 122°57'5 5.5
2016-Jun-21 21:33N 37°16' W 123°01'5 5.3
2016-Jun-21 20:33N 37°21' W 123°06'5 5.0
2016-Jun-21 19:33N 37°25' W 123°09'5 5.3
2016-Jun-21 18:33N 37°29' W 123°12'6 5.7
2016-Jun-21 17:33N 37°34' W 123°16'6 5.7
2016-Jun-21 16:33N 37°39' W 123°20'5 5.4
2016-Jun-21 15:33N 37°44' W 123°23'5 5.4
2016-Jun-21 14:32N 37°49' W 123°26'6 5.7
2016-Jun-21 13:33N 37°54' W 123°29'6 5.8
2016-Jun-21 12:33N 37°59' W 123°31'6 5.8
2016-Jun-21 11:33N 38°05' W 123°33'6 6.1
2016-Jun-21 10:33N 38°11' W 123°35'7 7.0
2016-Jun-21 09:33N 38°18' W 123°37'6 6.4
2016-Jun-21 08:33N 38°24' W 123°38'6 6.1
2016-Jun-21 07:33N 38°30' W 123°40'6 5.8
2016-Jun-21 06:33N 38°35' W 123°42'13 5.9
2016-Jun-21 04:20N 38°48' W 123°47'  
2016-Jun-18 10:31N 44°53' W 124°14'12 6.3
2016-Jun-18 08:33N 45°06' W 124°13'6 6.2
2016-Jun-18 07:32N 45°12' W 124°13'6 6.2
2016-Jun-18 06:33N 45°18' W 124°13'6 6.1
2016-Jun-18 05:33N 45°24' W 124°12'6 6.1
2016-Jun-18 04:33N 45°30' W 124°12'6 6.0
2016-Jun-18 03:33N 45°36' W 124°12'6 5.9
2016-Jun-18 02:33N 45°42' W 124°12'6 6.1
2016-Jun-18 01:33N 45°48' W 124°12'6 6.0
2016-Jun-18 00:33N 45°54' W 124°12'6 5.7
2016-Jun-17 23:33N 45°60' W 124°12'6 5.7
2016-Jun-17 22:33N 46°06' W 124°11'6 6.2
2016-Jun-17 21:33N 46°12' W 124°10'6 5.8
2016-Jun-17 20:33N 46°16' W 124°03'6 5.8
2016-Jun-17 19:33N 46°12' W 123°56'5 4.7
2016-Jun-17 18:33N 46°12' W 123°50'2 1.8
2016-Jun-17 17:33N 46°12' W 123°47'6 6.1
2016-Jun-17 16:33N 46°15' W 123°40'8 8.5
2016-Jun-17 15:33N 46°16' W 123°27'9 8.7
2016-Jun-17 14:33N 46°09' W 123°20'10 9.5
2016-Jun-17 13:33N 46°11' W 123°07'8 8.0
2016-Jun-17 12:33N 46°06' W 122°57'0 0.2
2016-Jun-17 11:33N 46°06' W 122°57'0 0.0
2016-Jun-17 10:33N 46°06' W 122°57'0 0.0
2016-Jun-17 09:33N 46°06' W 122°57'0 0.0
2016-Jun-17 08:33N 46°06' W 122°57'0 0.0
2016-Jun-17 07:33N 46°06' W 122°57'0 0.0
2016-Jun-17 06:33N 46°06' W 122°57'0 0.0
2016-Jun-17 05:33N 46°06' W 122°57'0 0.0
2016-Jun-17 04:33N 46°06' W 122°57'0 0.0
2016-Jun-17 03:33N 46°06' W 122°57'1010.4
2016-Jun-17 02:33N 45°57' W 122°49'1312.9
2016-Jun-17 01:33N 45°45' W 122°46'1010.3
2016-Jun-17 00:34N 45°35' W 122°45'1 0.8
2016-Jun-16 23:34N 45°34' W 122°44'  

Dump ship's entire track history